Time;durP1;ratioP1;P1;durP2;ratioP2;P2;SDS_P1;SDS_P2;PMS_P1;PMS_P2;Temp;Humidity;BMP_temperature;BMP_pressure;BME280_temperature;BME280_humidity;BME280_pressure;Samples;Min_cycle;Max_cycle;Signal;HPM_P1;HPM_P2
2022/06/19 00:01:17;;;;;;;6.70;4.65;;;;;;;15.94;59.35;98668.59;4958098;28;20053;-64
2022/06/19 00:03:48;;;;;;;5.90;4.32;;;;;;;15.94;59.15;98673.94;4957894;28;20051;-65
2022/06/19 00:06:14;;;;;;;12.32;4.78;;;;;;;15.98;58.84;98674.19;4957982;28;20050;-65
2022/06/19 00:08:40;;;;;;;6.57;4.57;;;;;;;15.98;58.95;98679.53;4975335;28;20043;-68
2022/06/19 00:11:11;;;;;;;7.65;4.93;;;;;;;16.00;59.19;98669.31;4957851;28;20046;-65
2022/06/19 00:13:37;;;;;;;5.80;4.57;;;;;;;15.99;59.22;98663.19;4957680;28;20651;-64
2022/06/19 00:16:03;;;;;;;5.57;4.53;;;;;;;15.98;58.95;98660.81;4957683;28;20402;-65
2022/06/19 00:18:29;;;;;;;7.20;4.30;;;;;;;16.01;59.17;98658.34;4957472;28;20077;-64
2022/06/19 00:20:54;;;;;;;5.25;4.28;;;;;;;15.97;58.58;98662.69;4975016;28;20169;-64
2022/06/19 00:23:20;;;;;;;6.25;4.10;;;;;;;16.01;59.16;98668.25;4974780;28;20050;-65
2022/06/19 00:25:46;;;;;;;4.75;3.67;;;;;;;16.02;59.18;98669.81;4957953;28;20378;-65
2022/06/19 00:28:12;;;;;;;4.88;3.90;;;;;;;15.98;58.87;98674.19;4974827;28;20046;-64
2022/06/19 00:30:37;;;;;;;6.93;3.95;;;;;;;16.00;58.56;98666.63;4975229;28;20093;-64
2022/06/19 00:33:03;;;;;;;5.53;4.00;;;;;;;15.98;58.64;98660.81;4974772;28;20540;-64
2022/06/19 00:35:29;;;;;;;4.82;3.75;;;;;;;15.98;58.63;98658.94;4974088;28;20125;-64
2022/06/19 00:37:56;;;;;;;4.38;3.83;;;;;;;15.99;58.34;98671.19;4974737;28;20504;-64
2022/06/19 00:40:24;;;;;;;5.47;3.90;;;;;;;15.98;58.08;98672.28;4957675;28;20171;-63
2022/06/19 00:42:49;;;;;;;5.57;3.53;;;;;;;16.00;58.29;98666.63;4957322;28;20054;-64
2022/06/19 00:45:42;;;;;;;5.57;3.47;;;;;;;15.94;58.00;98639.19;4974524;28;20042;-65
2022/06/19 00:48:18;;;;;;;5.72;3.67;;;;;;;16.00;58.26;98659.44;4974570;28;20062;-64
2022/06/19 00:50:45;;;;;;;5.38;3.70;;;;;;;15.95;58.58;98656.06;4974748;28;20043;-64
2022/06/19 00:53:17;;;;;;;6.88;3.45;;;;;;;15.98;58.28;98653.59;4957219;28;20042;-65
2022/06/19 00:55:45;;;;;;;6.03;3.90;;;;;;;15.99;58.75;98644.47;4974401;28;20421;-65
2022/06/19 00:58:20;;;;;;;5.10;3.67;;;;;;;15.95;58.21;98634.66;4941085;28;20521;-64
2022/06/19 01:00:51;;;;;;;4.53;3.30;;;;;;;15.98;58.60;98634.88;4957202;28;20453;-64
2022/06/19 01:03:22;;;;;;;4.15;3.22;;;;;;;15.98;58.07;98634.88;4957321;28;20462;-64
2022/06/19 01:05:48;;;;;;;6.15;3.20;;;;;;;15.99;58.29;98636.44;4974246;28;20125;-65
2022/06/19 01:08:14;;;;;;;4.63;3.40;;;;;;;15.99;58.64;98639.13;4956854;28;20054;-65
2022/06/19 01:10:42;;;;;;;4.07;3.42;;;;;;;15.97;58.13;98640.50;4941090;28;20051;-65
2022/06/19 01:13:08;;;;;;;5.30;3.35;;;;;;;15.92;58.75;98621.88;4957054;28;20042;-64
2022/06/19 01:15:34;;;;;;;7.18;3.42;;;;;;;15.94;58.88;98625.03;4974223;28;20047;-64
2022/06/19 01:18:03;;;;;;;5.35;3.28;;;;;;;15.95;58.49;98623.97;4956750;28;20039;-64
2022/06/19 01:20:29;;;;;;;5.93;3.42;;;;;;;15.92;58.90;98641.38;4956695;28;20039;-65
2022/06/19 01:23:35;;;;;;;5.10;3.17;;;;;;;15.96;58.85;98636.25;4973996;28;20551;-64
2022/06/19 01:26:01;;;;;;;8.55;3.38;;;;;;;15.96;59.25;98623.66;4930943;28;20051;-63
2022/06/19 01:28:45;;;;;;;4.15;3.17;;;;;;;15.95;58.77;98630.09;4973610;28;20051;-64
2022/06/19 01:31:15;;;;;;;5.93;3.33;;;;;;;15.97;59.04;98629.81;4973882;28;20501;-64
2022/06/19 01:33:47;;;;;;;4.50;3.50;;;;;;;15.98;58.81;98628.75;4973740;28;20101;-64
2022/06/19 01:36:14;;;;;;;5.72;3.47;;;;;;;15.97;59.06;98627.13;4956531;28;20038;-65
2022/06/19 01:38:42;;;;;;;7.72;3.47;;;;;;;15.98;59.03;98629.53;4973591;28;20049;-63
2022/06/19 01:41:14;;;;;;;5.38;3.20;;;;;;;15.97;59.46;98621.78;4956763;28;20413;-64
2022/06/19 01:43:40;;;;;;;4.72;3.05;;;;;;;15.96;59.30;98617.53;4973453;28;20039;-65
2022/06/19 01:46:05;;;;;;;4.13;3.10;;;;;;;15.97;59.11;98616.44;4956268;28;20081;-64
2022/06/19 01:48:32;;;;;;;3.25;2.95;;;;;;;15.98;59.30;98618.03;4956192;28;20574;-63
2022/06/19 01:51:01;;;;;;;5.82;3.20;;;;;;;15.97;59.40;98622.59;4956183;28;20043;-64
2022/06/19 01:53:42;;;;;;;5.50;3.42;;;;;;;16.02;59.04;98613.69;4973281;28;20049;-64
2022/06/19 01:56:10;;;;;;;3.95;3.25;;;;;;;16.05;59.19;98613.91;4973571;28;20420;-65
2022/06/19 01:58:38;;;;;;;3.45;3.15;;;;;;;16.06;58.79;98610.16;4973163;28;20075;-64
2022/06/19 02:01:05;;;;;;;6.07;3.00;;;;;;;16.08;58.97;98610.63;4973204;28;20077;-64
2022/06/19 02:03:35;;;;;;;3.78;3.00;;;;;;;16.11;58.60;98612.72;4956157;28;20058;-64
2022/06/19 02:06:01;;;;;;;4.97;3.13;;;;;;;16.15;58.54;98612.97;4973230;28;20051;-63
2022/06/19 02:08:28;;;;;;;6.30;3.10;;;;;;;16.18;58.74;98609.69;4955759;28;20100;-65
2022/06/19 02:10:53;;;;;;;5.15;3.10;;;;;;;16.22;58.71;98609.91;4956275;28;20047;-64
2022/06/19 02:13:20;;;;;;;5.18;3.00;;;;;;;16.20;58.86;98601.38;4972915;28;20054;-65
2022/06/19 02:15:47;;;;;;;4.25;3.03;;;;;;;16.20;59.25;98602.16;4955980;28;20054;-64
2022/06/19 02:18:18;;;;;;;5.32;2.90;;;;;;;16.20;58.85;98602.16;4955998;28;20122;-65
2022/06/19 02:20:43;;;;;;;;;;;;;;;16.18;58.86;98599.00;4956259;28;20050;-64
2022/06/19 02:23:09;;;;;;;3.88;2.80;;;;;;;16.26;59.20;98587.59;4955905;28;19922;-64
2022/06/19 02:25:39;;;;;;;4.88;3.00;;;;;;;16.32;58.76;98591.00;4955733;28;20520;-63
2022/06/19 02:28:05;;;;;;;5.07;3.38;;;;;;;16.40;58.19;98590.31;4955938;28;20419;-63
2022/06/19 02:30:31;;;;;;;6.63;3.00;;;;;;;16.41;58.29;98594.56;4955784;28;20084;-64
2022/06/19 02:32:57;;;;;;;5.45;2.88;;;;;;;16.41;58.43;98594.56;4973019;28;20481;-65
2022/06/19 02:35:24;;;;;;;3.42;2.70;;;;;;;16.43;58.61;98592.41;4972656;28;20054;-65
2022/06/19 02:37:55;;;;;;;3.45;2.90;;;;;;;16.49;58.23;98593.09;4972121;28;20088;-64
2022/06/19 02:40:33;;;;;;;4.97;2.72;;;;;;;16.58;57.78;98588.66;4973299;28;20042;-65
2022/06/19 02:42:59;;;;;;;5.47;3.05;;;;;;;16.65;57.83;98575.69;4939513;28;20058;-64
2022/06/19 02:45:28;;;;;;;4.25;2.65;;;;;;;16.69;57.84;98576.69;4955658;28;20057;-65
2022/06/19 02:47:56;;;;;;;3.50;2.85;;;;;;;16.74;57.69;98578.47;4972660;28;20049;-64
2022/06/19 02:50:26;;;;;;;4.13;2.95;;;;;;;16.82;57.05;98575.13;4955324;28;20094;-65
2022/06/19 02:52:53;;;;;;;5.40;2.88;;;;;;;16.94;57.15;98569.25;4972667;28;20141;-64
2022/06/19 02:55:19;;;;;;;3.33;2.88;;;;;;;16.99;57.22;98569.94;4972787;28;20049;-65
2022/06/19 02:57:45;;;;;;;5.07;3.05;;;;;;;17.12;56.81;98581.75;4973239;28;20058;-63
2022/06/19 03:00:16;;;;;;;2.83;2.63;;;;;;;17.20;56.55;98575.66;4976909;28;20551;-64
2022/06/19 03:02:42;;;;;;;3.17;2.60;;;;;;;17.30;56.54;98568.53;4976752;28;20218;-65
2022/06/19 03:05:15;;;;;;;4.88;2.97;;;;;;;17.34;55.98;98559.56;4976860;28;20117;-63
2022/06/19 03:07:41;;;;;;;5.40;2.80;;;;;;;17.48;56.32;98556.88;4959294;28;20058;-64
2022/06/19 03:10:08;;;;;;;2.70;2.50;;;;;;;17.53;55.47;98555.94;4976797;28;20074;-64
2022/06/19 03:12:34;;;;;;;4.00;2.47;;;;;;;17.56;55.78;98560.69;4976174;28;20042;-65
2022/06/19 03:15:00;;;;;;;2.92;2.63;;;;;;;17.75;55.37;98555.97;4959089;28;20508;-64
2022/06/19 03:17:26;;;;;;;5.47;2.80;;;;;;;17.93;55.02;98551.53;4958830;28;20062;-64
2022/06/19 03:19:51;;;;;;;4.85;2.90;;;;;;;17.95;54.72;98551.25;4942987;28;20042;-64
2022/06/19 03:22:17;;;;;;;4.28;2.80;;;;;;;17.84;54.95;98543.44;4976371;28;20118;-66
2022/06/19 03:24:43;;;;;;;5.10;2.88;;;;;;;17.85;54.56;98539.69;4976307;28;20101;-64
2022/06/19 03:27:09;;;;;;;3.50;2.58;;;;;;;17.84;54.69;98539.97;4976301;28;20043;-65
2022/06/19 03:29:35;;;;;;;4.28;2.70;;;;;;;17.82;54.81;98537.56;4974767;28;20042;-63
2022/06/19 03:32:00;;;;;;;3.50;2.80;;;;;;;17.93;54.65;98536.22;4975903;28;20117;-65
2022/06/19 03:34:26;;;;;;;3.05;2.50;;;;;;;17.96;54.43;98529.47;4958561;28;20052;-64
2022/06/19 03:36:52;;;;;;;5.75;3.05;;;;;;;17.97;54.67;98524.91;4975900;28;20038;-64
2022/06/19 03:39:18;;;;;;;3.17;2.78;;;;;;;18.00;54.46;98522.41;4975866;28;20045;-64
2022/06/19 03:41:44;;;;;;;3.45;2.80;;;;;;;18.04;54.74;98515.34;4976018;28;20058;-64
2022/06/19 03:44:09;;;;;;;5.20;2.95;;;;;;;18.01;55.11;98517.84;4975977;28;20042;-64
2022/06/19 03:46:35;;;;;;;3.13;2.42;;;;;;;18.05;54.43;98522.25;4975882;28;20039;-65
2022/06/19 03:49:01;;;;;;;3.28;2.50;;;;;;;18.11;54.24;98515.66;4958458;28;20046;-63
2022/06/19 03:51:27;;;;;;;4.53;2.88;;;;;;;18.21;53.86;98516.53;4975777;28;20504;-65
2022/06/19 03:53:54;;;;;;;3.58;2.67;;;;;;;18.29;53.67;98513.06;4975501;28;20181;-65
2022/06/19 03:56:26;;;;;;;4.47;2.58;;;;;;;18.33;53.63;98506.00;4975718;28;20058;-65
2022/06/19 03:58:52;;;;;;;6.03;2.60;;;;;;;18.31;53.72;98517.03;4975692;28;20038;-64
2022/06/19 04:01:46;;;;;;;4.20;3.00;;;;;;;18.36;53.76;98511.53;4975728;28;20043;-66
2022/06/19 04:04:12;;;;;;;5.32;2.80;;;;;;;18.39;53.18;98510.91;4955229;28;20066;-65
2022/06/19 04:06:40;;;;;;;3.08;2.70;;;;;;;18.26;53.08;98506.44;4975534;28;20125;-65
2022/06/19 04:09:08;;;;;;;3.33;2.55;;;;;;;18.32;53.23;98509.75;4975190;28;20066;-63
2022/06/19 04:11:34;;;;;;;3.33;2.67;;;;;;;18.30;52.88;98495.91;4957818;28;20043;-65
2022/06/19 04:13:59;;;;;;;6.78;2.50;;;;;;;18.42;52.91;98509.50;4975163;28;20070;-64
2022/06/19 04:16:31;;;;;;;2.97;2.30;;;;;;;18.55;52.71;98502.44;4957672;28;20555;-64
2022/06/19 04:18:58;;;;;;;3.90;2.40;;;;;;;18.67;53.09;98508.00;4975318;28;20101;-65
2022/06/19 04:21:28;;;;;;;2.88;2.45;;;;;;;18.67;52.48;98508.00;4975243;28;20051;-66
2022/06/19 04:23:57;;;;;;;4.40;2.33;;;;;;;18.69;52.53;98505.00;4975058;28;20054;-64
2022/06/19 04:26:25;;;;;;;5.20;2.90;;;;;;;18.65;52.55;98504.84;4957552;28;20050;-65
2022/06/19 04:28:50;;;;;;;3.33;2.90;;;;;;;18.67;52.92;98512.56;4974995;28;20042;-64
2022/06/19 04:31:16;;;;;;;3.58;3.00;;;;;;;18.73;52.49;98514.00;4974645;28;20057;-66
2022/06/19 04:33:43;;;;;;;5.43;3.67;;;;;;;18.80;52.21;98511.69;4974872;28;20508;-64
2022/06/19 04:36:12;;;;;;;5.75;4.00;;;;;;;18.83;52.53;98506.50;4975031;28;20046;-65
2022/06/19 04:38:38;;;;;;;8.20;4.80;;;;;;;18.80;52.37;98496.38;4957368;28;20050;-65
2022/06/19 04:41:04;;;;;;;7.13;5.22;;;;;;;18.89;53.33;98496.41;4957334;28;20049;-65
2022/06/19 04:43:30;;;;;;;10.60;6.70;;;;;;;18.97;51.99;98492.94;4974712;28;20310;-64
2022/06/19 04:46:03;;;;;;;8.65;5.50;;;;;;;19.11;52.61;98486.63;4957112;28;20070;-65
2022/06/19 04:48:30;;;;;;;6.43;5.82;;;;;;;19.43;51.71;98477.28;4957310;28;20039;-64
2022/06/19 04:50:55;;;;;;;7.60;6.13;;;;;;;20.01;50.57;98488.59;4957173;28;20448;-65
2022/06/19 04:53:21;;;;;;;6.70;6.03;;;;;;;20.54;49.51;98479.22;4957156;28;20049;-64
2022/06/19 04:55:47;;;;;;;7.35;6.03;;;;;;;20.93;47.46;98474.53;4974544;28;20520;-66
2022/06/19 04:58:12;;;;;;;6.40;5.40;;;;;;;21.31;47.34;98467.09;4956947;28;20390;-65
2022/06/19 05:00:40;;;;;;;7.18;5.35;;;;;;;21.41;47.08;98476.72;4957225;28;20062;-65
2022/06/19 05:03:06;;;;;;;7.75;5.75;;;;;;;21.54;47.06;98464.88;4974217;28;20106;-64
2022/06/19 05:05:31;;;;;;;9.07;5.53;;;;;;;21.87;46.37;98469.44;4957089;28;20039;-64
2022/06/19 05:07:57;;;;;;;6.90;5.13;;;;;;;22.22;45.40;98469.84;4974387;28;20054;-64
2022/06/19 05:10:23;;;;;;;8.77;5.03;;;;;;;22.29;44.75;98463.88;4956766;28;20050;-64
2022/06/19 05:12:55;;;;;;;6.13;4.40;;;;;;;22.32;45.31;98473.22;4956809;28;20365;-65
2022/06/19 05:15:21;;;;;;;5.18;4.25;;;;;;;22.27;45.49;98458.06;4974318;28;20043;-66
2022/06/19 05:17:47;;;;;;;6.65;4.15;;;;;;;22.30;45.44;98465.47;4973711;28;20069;-65
2022/06/19 05:20:13;;;;;;;7.00;3.78;;;;;;;22.43;45.34;98467.03;4956219;28;20042;-64
2022/06/19 05:22:39;;;;;;;5.10;3.00;;;;;;;22.42;45.44;98464.69;4924755;28;20039;-67
2022/06/19 05:25:08;;;;;;;4.35;3.00;;;;;;;22.48;45.01;98459.84;4974097;28;20051;-64
2022/06/19 05:27:40;;;;;;;3.95;3.53;;;;;;;22.48;45.37;98468.75;4973954;28;20050;-65
2022/06/19 05:30:08;;;;;;;8.18;3.22;;;;;;;22.71;45.05;98460.16;4974106;28;20046;-64
2022/06/19 05:32:34;;;;;;;4.00;2.60;;;;;;;22.72;44.86;98459.81;4973564;28;20556;-65
2022/06/19 05:34:59;;;;;;;4.88;2.92;;;;;;;22.45;45.87;98456.69;4956066;28;20042;-65
2022/06/19 05:37:25;;;;;;;9.30;3.55;;;;;;;22.49;45.49;98451.41;4973503;28;20051;-64
2022/06/19 05:39:51;;;;;;;4.07;2.72;;;;;;;22.15;46.33;98456.09;4956355;28;20041;-65
2022/06/19 05:42:17;;;;;;;4.05;2.83;;;;;;;21.83;46.66;98457.75;4973800;28;20394;-65
2022/06/19 05:44:43;;;;;;;4.00;2.40;;;;;;;21.86;47.08;98462.47;4973881;28;20129;-64
2022/06/19 05:47:09;;;;;;;4.93;2.72;;;;;;;21.84;46.56;98462.00;4956518;28;20046;-65
2022/06/19 05:49:35;;;;;;;6.63;3.10;;;;;;;21.73;47.04;98450.06;4973564;28;20069;-65
2022/06/19 05:52:02;;;;;;;4.22;2.72;;;;;;;21.74;47.28;98457.84;4973363;28;20397;-66
2022/06/19 05:54:29;;;;;;;5.38;2.22;;;;;;;21.99;46.99;98453.25;4973326;28;20473;-65
2022/06/19 05:56:54;;;;;;;7.75;2.80;;;;;;;22.36;46.79;98442.53;4973121;28;20539;-65
2022/06/19 05:59:20;;;;;;;3.65;2.60;;;;;;;22.52;46.41;98447.25;4973319;28;20090;-65
2022/06/19 06:01:46;;;;;;;4.80;2.33;;;;;;;22.45;45.54;98453.22;4973200;28;20125;-66
2022/06/19 06:04:11;;;;;;;4.68;2.80;;;;;;;22.29;46.13;98449.59;4973196;28;20046;-65
2022/06/19 06:06:39;;;;;;;3.72;2.50;;;;;;;22.20;46.45;98437.00;4973353;28;20133;-66
2022/06/19 06:09:05;;;;;;;7.97;2.45;;;;;;;22.39;46.15;98441.06;4973284;28;20117;-65
2022/06/19 06:11:31;;;;;;;2.75;2.53;;;;;;;22.43;46.00;98447.34;4973268;28;20504;-66
2022/06/19 06:13:57;;;;;;;7.13;2.38;;;;;;;22.53;45.52;98446.91;4972948;28;20054;-65
2022/06/19 06:16:23;;;;;;;5.18;2.10;;;;;;;22.38;46.24;98443.00;4972670;28;20438;-64
2022/06/19 06:18:50;;;;;;;3.67;2.50;;;;;;;22.24;46.11;98423.63;4939488;28;20434;-64
2022/06/19 06:21:18;;;;;;;7.25;2.42;;;;;;;22.05;46.42;98418.75;4972801;28;20073;-64
2022/06/19 06:23:44;;;;;;;2.78;2.10;;;;;;;22.04;46.27;98411.78;4972679;28;20448;-65
2022/06/19 06:26:13;;;;;;;3.25;2.50;;;;;;;22.10;45.95;98415.06;4972858;28;20047;-66
2022/06/19 06:28:41;;;;;;;5.03;2.17;;;;;;;22.08;46.02;98411.91;4972806;28;20070;-64
2022/06/19 06:31:07;;;;;;;3.65;2.50;;;;;;;22.10;45.77;98417.75;4971547;28;20504;-65
2022/06/19 06:33:33;;;;;;;3.58;2.50;;;;;;;22.13;46.21;98417.09;4971920;28;20050;-65
2022/06/19 06:35:59;;;;;;;5.65;3.17;;;;;;;22.02;46.10;98407.84;4955647;28;20491;-65
2022/06/19 06:38:25;;;;;;;7.05;2.83;;;;;;;21.85;46.06;98419.63;4955731;28;20558;-66
2022/06/19 06:40:51;;;;;;;3.42;2.05;;;;;;;21.59;46.62;98415.34;4972933;28;20047;-66
2022/06/19 06:43:18;;;;;;;4.00;2.10;;;;;;;21.51;46.99;98414.31;4955036;28;20421;-66
2022/06/19 06:45:44;;;;;;;4.15;2.25;;;;;;;21.42;47.41;98421.69;4972518;28;20061;-65
2022/06/19 06:48:11;;;;;;;2.38;2.17;;;;;;;21.47;47.20;98420.69;4955305;28;20653;-65
2022/06/19 06:50:38;;;;;;;2.88;2.60;;;;;;;21.65;47.10;98408.59;4955301;28;20074;-65
2022/06/19 06:53:04;;;;;;;3.17;1.95;;;;;;;21.71;46.95;98404.56;4972510;28;20516;-66
2022/06/19 06:55:30;;;;;;;4.65;2.30;;;;;;;21.91;46.82;98404.81;4955452;28;20046;-65
2022/06/19 06:57:56;;;;;;;2.75;2.10;;;;;;;22.12;46.33;98397.41;4939169;28;20105;-65
2022/06/19 07:00:23;;;;;;;2.63;2.10;;;;;;;22.12;46.19;98393.91;4954958;28;20133;-66
2022/06/19 07:02:50;;;;;;;3.17;2.25;;;;;;;22.23;46.87;98398.53;4939321;28;20166;-64
2022/06/19 07:05:16;;;;;;;10.80;2.78;;;;;;;22.35;46.42;98388.84;4972297;28;20046;-65
2022/06/19 07:07:42;;;;;;;5.63;2.60;;;;;;;22.21;46.33;98397.31;4972311;28;20047;-65
2022/06/19 07:10:08;;;;;;;3.80;2.38;;;;;;;22.00;47.05;98387.41;4939282;28;20405;-65
2022/06/19 07:12:34;;;;;;;3.67;2.63;;;;;;;21.82;48.14;98391.41;4923300;28;20043;-66
2022/06/19 07:15:00;;;;;;;2.53;2.33;;;;;;;21.48;49.07;98404.19;4972528;28;20105;-66
2022/06/19 07:17:27;;;;;;;2.83;2.47;;;;;;;21.17;51.73;98393.81;4972358;28;20506;-65
2022/06/19 07:19:52;;;;;;;4.57;2.40;;;;;;;20.79;52.84;98394.78;4972568;28;20047;-64
2022/06/19 07:22:18;;;;;;;3.70;2.30;;;;;;;20.67;54.46;98393.94;4972482;28;20093;-66
2022/06/19 07:24:46;;;;;;;2.38;2.17;;;;;;;20.83;53.34;98394.94;4955141;28;20540;-64
2022/06/19 07:27:12;;;;;;;3.03;2.22;;;;;;;20.64;54.09;98395.38;4955147;28;20136;-66
2022/06/19 07:29:45;;;;;;;3.08;2.40;;;;;;;20.53;53.59;98386.09;4954823;28;20497;-66
2022/06/19 07:32:12;;;;;;;3.63;2.53;;;;;;;20.52;53.14;98379.13;4972474;28;20051;-65
2022/06/19 07:34:39;;;;;;;2.70;2.35;;;;;;;20.70;52.67;98371.72;4972263;28;20043;-65
2022/06/19 07:37:05;;;;;;;3.85;2.50;;;;;;;20.98;52.22;98375.47;4972376;28;20078;-64
2022/06/19 07:39:33;;;;;;;5.70;2.50;;;;;;;21.21;52.56;98369.72;4972230;28;20509;-64
2022/06/19 07:41:59;;;;;;;2.67;2.47;;;;;;;21.44;51.25;98360.16;4954777;28;20057;-63
2022/06/19 07:44:25;;;;;;;5.50;2.75;;;;;;;21.74;50.22;98368.84;4956615;28;20039;-65
2022/06/19 07:52:21;;;;;;;3.92;2.72;;;;;;;22.68;48.80;98348.19;4975774;28;20047;-64
2022/06/19 07:54:47;;;;;;;3.92;2.40;;;;;;;22.89;47.61;98354.19;4975661;28;20563;-64
2022/06/19 07:57:14;;;;;;;6.45;2.60;;;;;;;22.85;48.24;98353.31;4975665;28;20441;-66
2022/06/19 07:59:39;;;;;;;3.00;2.20;;;;;;;22.86;48.33;98351.38;4975691;28;20043;-65
2022/06/19 08:02:06;;;;;;;5.45;2.30;;;;;;;22.59;47.55;98342.13;4958165;28;20043;-65
2022/06/19 08:04:32;;;;;;;5.03;2.55;;;;;;;22.61;47.51;98343.34;4957848;28;20223;-65
2022/06/19 08:06:57;;;;;;;3.08;2.38;;;;;;;22.60;46.38;98349.88;4975155;28;20452;-66
2022/06/19 08:09:23;;;;;;;3.15;2.58;;;;;;;22.80;46.25;98347.34;4975538;28;20043;-65
2022/06/19 08:11:49;;;;;;;4.15;2.50;;;;;;;22.96;45.41;98337.41;4975485;28;20522;-66
2022/06/19 08:14:15;;;;;;;4.15;2.30;;;;;;;22.96;45.63;98336.63;4975307;28;20042;-65
2022/06/19 08:16:40;;;;;;;4.28;2.30;;;;;;;23.02;45.81;98319.03;4958035;28;20061;-65
2022/06/19 08:19:06;;;;;;;4.78;2.20;;;;;;;23.11;45.76;98323.13;4975211;28;20072;-65
2022/06/19 08:21:32;;;;;;;8.73;2.55;;;;;;;23.07;45.98;98311.44;4975014;28;20097;-65
2022/06/19 08:23:58;;;;;;;3.72;2.42;;;;;;;23.23;45.34;98297.16;4975148;28;20049;-67
2022/06/19 08:26:23;;;;;;;5.88;2.47;;;;;;;23.22;45.20;98295.59;4957772;28;20049;-66
2022/06/19 08:31:18;;;;;;;4.15;2.38;;;;;;;23.15;45.24;98277.28;4957435;28;20491;-66
2022/06/19 08:33:43;;;;;;;4.97;2.30;;;;;;;23.22;46.06;98288.28;4974565;28;20078;-65
2022/06/19 08:36:11;;;;;;;4.68;2.70;;;;;;;23.00;45.48;98289.66;4974684;28;20137;-66
2022/06/19 08:38:40;;;;;;;6.70;2.60;;;;;;;22.96;45.17;98291.47;4974793;28;20170;-66
2022/06/19 08:41:43;;;;;;;5.13;2.42;;;;;;;23.01;46.58;98283.09;4957381;28;20104;-64
2022/06/19 08:44:14;;;;;;;4.18;2.50;;;;;;;23.04;46.32;98277.00;4974754;28;20051;-65
2022/06/19 08:46:52;;;;;;;5.80;2.40;;;;;;;23.25;45.72;98271.34;4974804;28;20065;-65
2022/06/19 08:49:18;;;;;;;4.72;2.80;;;;;;;23.40;45.80;98255.47;4974521;28;20054;-63
2022/06/19 08:52:02;;;;;;;5.20;2.60;;;;;;;23.52;45.44;98256.16;4957525;28;20046;-67
2022/06/19 08:54:49;;;;;;;3.60;2.35;;;;;;;23.61;45.36;98260.63;4974629;28;20054;-65
2022/06/19 08:57:58;;;;;;;3.30;2.33;;;;;;;24.03;44.44;98255.38;4956409;28;20105;-66
2022/06/19 09:00:46;;;;;;;4.83;2.67;;;;;;;24.24;44.47;98249.66;4974161;28;20101;-64
2022/06/19 09:03:23;;;;;;;3.88;2.45;;;;;;;24.50;42.51;98242.84;4974396;28;20081;-65
2022/06/19 09:05:58;;;;;;;3.35;2.40;;;;;;;24.79;42.49;98236.03;4974376;28;20066;-64
2022/06/19 09:08:45;;;;;;;5.68;2.60;;;;;;;24.85;41.54;98240.00;4973969;28;20042;-66
2022/06/19 09:11:29;;;;;;;4.25;2.85;;;;;;;24.79;41.57;98238.75;4956560;28;20099;-65
2022/06/19 09:14:13;;;;;;;2.80;2.53;;;;;;;24.82;41.10;98241.50;4973797;28;20054;-64
2022/06/19 09:17:08;;;;;;;6.63;2.58;;;;;;;24.84;41.90;98231.09;4973984;28;20092;-65
2022/06/19 09:19:39;;;;;;;3.65;2.65;;;;;;;24.75;42.34;98238.69;4937743;28;20391;-64
2022/06/19 09:22:32;;;;;;;5.55;3.00;;;;;;;24.46;42.28;98218.41;4973808;28;20137;-66
2022/06/19 09:25:30;;;;;;;4.75;2.90;;;;;;;24.21;42.81;98228.72;4956394;28;20573;-63
2022/06/19 09:28:27;;;;;;;4.85;2.85;;;;;;;24.18;43.27;98230.22;4969812;28;20055;-65
2022/06/19 09:31:07;;;;;;;5.82;2.75;;;;;;;24.20;42.76;98219.78;4963397;28;20058;-65
2022/06/19 09:33:44;;;;;;;3.65;2.50;;;;;;;24.42;42.58;98203.97;4973587;28;20497;-65
2022/06/19 09:36:22;;;;;;;5.47;3.20;;;;;;;24.49;42.83;98198.72;4972574;28;20054;-66
2022/06/19 09:38:58;;;;;;;3.78;2.70;;;;;;;24.76;42.35;98182.56;4973825;28;20508;-65
2022/06/19 09:41:39;;;;;;;3.45;2.65;;;;;;;24.75;43.49;98183.72;4956205;28;20051;-64
2022/06/19 09:44:22;;;;;;;3.75;2.92;;;;;;;24.72;42.69;98176.28;4956319;28;20129;-66
2022/06/19 09:46:58;;;;;;;5.60;3.40;;;;;;;24.60;42.81;98166.41;4940193;28;20043;-66
2022/06/19 09:49:32;;;;;;;4.93;2.88;;;;;;;24.57;42.47;98159.78;4973456;28;20484;-66
2022/06/19 09:52:17;;;;;;;4.28;3.10;;;;;;;24.65;42.54;98147.94;4956097;28;20054;-66
2022/06/19 09:54:53;;;;;;;5.32;3.30;;;;;;;24.91;42.53;98151.81;4955867;28;20058;-65
2022/06/19 09:57:25;;;;;;;5.13;3.05;;;;;;;24.97;42.54;98150.38;4973302;28;20089;-66
2022/06/19 09:59:55;;;;;;;4.35;2.80;;;;;;;25.10;41.89;98149.06;4973547;28;20066;-66
2022/06/19 10:02:52;;;;;;;7.30;3.35;;;;;;;25.26;40.95;98137.28;4955833;28;20113;-65
2022/06/19 10:05:34;;;;;;;5.53;3.22;;;;;;;25.32;40.83;98131.19;4955630;28;20428;-65
2022/06/19 10:08:06;;;;;;;6.28;3.05;;;;;;;25.33;40.88;98123.84;4973219;28;20047;-65
2022/06/19 10:10:49;;;;;;;4.80;2.97;;;;;;;25.25;41.39;98116.75;4973539;28;20035;-65
2022/06/19 10:13:31;;;;;;;6.47;2.85;;;;;;;25.41;40.81;98117.34;4956109;28;20055;-65
2022/06/19 10:15:58;;;;;;;5.82;3.22;;;;;;;25.17;41.54;98112.38;4939622;28;20059;-67
2022/06/19 10:18:37;;;;;;;5.53;2.95;;;;;;;25.24;42.19;98112.50;4955401;28;20417;-65
2022/06/19 10:24:37;;;;;;;6.88;2.85;;;;;;;25.81;40.46;98111.28;4972956;28;20492;-66
2022/06/19 10:27:08;;;;;;;5.68;3.17;;;;;;;25.87;40.45;98090.06;4972643;28;20133;-65
2022/06/19 10:29:47;;;;;;;6.93;2.90;;;;;;;25.92;40.10;98078.88;4972902;28;20145;-65
2022/06/19 10:32:45;;;;;;;4.30;3.10;;;;;;;25.97;41.34;98075.84;4955468;28;20069;-66
2022/06/19 10:35:37;;;;;;;7.93;3.38;;;;;;;26.09;39.66;98065.84;4936398;28;20066;-65
2022/06/19 10:38:29;;;;;;;5.03;3.28;;;;;;;26.03;41.15;98062.69;4955434;28;20043;-66
2022/06/19 10:41:09;;;;;;;7.25;3.47;;;;;;;25.82;40.62;98066.75;4971417;28;20087;-64
2022/06/19 10:43:49;;;;;;;;;;;;;;;25.55;40.59;98068.72;4973110;28;20114;-65
2022/06/19 10:46:16;;;;;;;8.00;3.17;;;;;;;25.59;40.89;98071.50;4972228;28;20386;-64
2022/06/19 10:49:30;;;;;;;8.05;3.20;;;;;;;25.51;40.89;98076.03;4955180;28;20046;-65
2022/06/19 10:52:18;;;;;;;5.20;3.17;;;;;;;25.21;41.32;98070.63;4903327;28;20124;-65
2022/06/19 10:54:59;;;;;;;5.07;2.92;;;;;;;25.18;41.73;98065.13;4932560;28;20046;-66
2022/06/19 10:58:01;;;;;;;7.38;3.10;;;;;;;25.33;41.66;98062.25;4972379;28;20521;-66
2022/06/19 11:00:27;;;;;;;5.43;3.20;;;;;;;25.18;41.79;98076.78;4955479;28;20126;-66
2022/06/19 11:06:11;;;;;;;10.00;3.67;;;;;;;25.19;42.48;98077.53;4972400;28;20452;-65
2022/06/19 11:08:37;;;;;;;7.65;3.38;;;;;;;25.09;42.31;98087.03;4972594;28;21532;-64
2022/06/19 11:11:03;;;;;;;4.60;3.20;;;;;;;25.11;42.16;98082.81;4972666;28;20070;-66
2022/06/19 11:13:58;;;;;;;4.30;3.20;;;;;;;25.09;41.93;98093.28;4938771;28;20596;-66
2022/06/19 11:16:25;;;;;;;5.10;3.20;;;;;;;25.21;42.47;98091.50;4971002;28;20463;-64
2022/06/19 11:18:54;;;;;;;4.22;3.25;;;;;;;25.24;41.90;98090.78;4955817;28;20099;-65
2022/06/19 11:21:24;;;;;;;7.45;3.70;;;;;;;25.15;42.41;98085.63;4958785;28;20050;-65
2022/06/19 11:23:59;;;;;;;6.72;3.45;;;;;;;24.99;43.13;98080.31;4976171;28;20057;-64
2022/06/19 11:26:40;;;;;;;3.97;3.38;;;;;;;24.93;43.45;98089.91;4958473;28;20039;-64
2022/06/19 11:29:15;;;;;;;6.20;3.67;;;;;;;25.06;43.40;98087.78;4958768;28;20050;-65
2022/06/19 11:32:02;;;;;;;5.78;3.50;;;;;;;25.19;43.03;98080.25;4976293;28;20186;-65
2022/06/19 11:34:43;;;;;;;7.45;3.38;;;;;;;25.25;43.38;98081.50;4976017;28;20047;-63
2022/06/19 11:37:17;;;;;;;6.50;3.25;;;;;;;25.41;42.48;98092.94;4961122;28;20046;-65
2022/06/19 11:39:59;;;;;;;8.50;3.22;;;;;;;25.68;42.38;98085.56;4975678;28;20049;-64
2022/06/19 11:42:30;;;;;;;6.60;3.22;;;;;;;25.68;42.38;98071.19;4958464;28;20054;-65
2022/06/19 11:45:22;;;;;;;7.70;3.25;;;;;;;25.86;41.89;98077.66;4975742;28;20053;-64
2022/06/19 11:48:12;;;;;;;7.13;3.70;;;;;;;25.98;41.77;98079.34;4958542;28;20096;-65
2022/06/19 11:50:59;;;;;;;7.20;3.47;;;;;;;26.01;41.67;98092.16;4975608;28;20042;-66
2022/06/19 11:53:53;;;;;;;6.32;3.53;;;;;;;26.19;41.15;98078.78;4957503;28;20476;-64
2022/06/19 11:56:28;;;;;;;3.90;3.05;;;;;;;26.19;41.20;98093.13;4972428;28;20076;-64
2022/06/19 11:58:56;;;;;;;5.53;3.33;;;;;;;26.09;41.29;98063.13;4958376;28;20412;-64
2022/06/19 12:01:34;;;;;;;7.45;3.75;;;;;;;26.13;42.04;98058.53;4926251;28;20046;-65
2022/06/19 12:04:02;;;;;;;7.80;3.20;;;;;;;26.21;41.76;98050.09;4975206;28;20043;-66
2022/06/19 12:06:40;;;;;;;8.23;3.75;;;;;;;26.24;41.67;98041.19;4957921;28;20038;-65